sensor_id;sensor_type;location;lat;lon;timestamp;temperature;humidity
27637;DHT22;15049;48.114;11.486;2022-07-23T00:01:20;24.60;31.80
27637;DHT22;15049;48.114;11.486;2022-07-23T00:03:46;24.70;31.20
27637;DHT22;15049;48.114;11.486;2022-07-23T00:06:12;24.50;30.80
27637;DHT22;15049;48.114;11.486;2022-07-23T00:08:38;24.50;31.00
27637;DHT22;15049;48.114;11.486;2022-07-23T00:11:04;24.50;30.70
27637;DHT22;15049;48.114;11.486;2022-07-23T00:13:31;24.70;30.40
27637;DHT22;15049;48.114;11.486;2022-07-23T00:15:57;24.70;30.00
27637;DHT22;15049;48.114;11.486;2022-07-23T00:18:23;24.70;29.90
27637;DHT22;15049;48.114;11.486;2022-07-23T00:20:48;24.60;29.50
27637;DHT22;15049;48.114;11.486;2022-07-23T00:23:14;24.50;29.80
27637;DHT22;15049;48.114;11.486;2022-07-23T00:25:40;24.40;29.70
27637;DHT22;15049;48.114;11.486;2022-07-23T00:28:06;24.30;30.10
27637;DHT22;15049;48.114;11.486;2022-07-23T00:30:33;24.20;30.30
27637;DHT22;15049;48.114;11.486;2022-07-23T00:33:05;24.10;30.40
27637;DHT22;15049;48.114;11.486;2022-07-23T00:35:32;24.10;30.70
27637;DHT22;15049;48.114;11.486;2022-07-23T00:37:59;24.00;30.90
27637;DHT22;15049;48.114;11.486;2022-07-23T00:40:26;23.90;31.00
27637;DHT22;15049;48.114;11.486;2022-07-23T00:42:52;24.00;30.90
27637;DHT22;15049;48.114;11.486;2022-07-23T00:45:18;23.90;31.20
27637;DHT22;15049;48.114;11.486;2022-07-23T00:47:46;23.80;31.40
27637;DHT22;15049;48.114;11.486;2022-07-23T00:50:13;23.80;31.40
27637;DHT22;15049;48.114;11.486;2022-07-23T00:52:40;23.70;31.30
27637;DHT22;15049;48.114;11.486;2022-07-23T00:55:07;23.70;31.50
27637;DHT22;15049;48.114;11.486;2022-07-23T00:57:33;23.70;31.60
27637;DHT22;15049;48.114;11.486;2022-07-23T00:59:59;23.70;31.50
27637;DHT22;15049;48.114;11.486;2022-07-23T01:02:26;23.80;31.30
27637;DHT22;15049;48.114;11.486;2022-07-23T01:04:53;23.80;31.40
27637;DHT22;15049;48.114;11.486;2022-07-23T01:07:20;23.70;31.90
27637;DHT22;15049;48.114;11.486;2022-07-23T01:09:46;23.70;32.40
27637;DHT22;15049;48.114;11.486;2022-07-23T01:12:12;23.70;33.00
27637;DHT22;15049;48.114;11.486;2022-07-23T01:14:38;23.70;33.30
27637;DHT22;15049;48.114;11.486;2022-07-23T01:17:04;23.70;33.00
27637;DHT22;15049;48.114;11.486;2022-07-23T01:19:30;23.80;32.10
27637;DHT22;15049;48.114;11.486;2022-07-23T01:21:58;23.80;30.50
27637;DHT22;15049;48.114;11.486;2022-07-23T01:24:28;23.70;28.90
27637;DHT22;15049;48.114;11.486;2022-07-23T01:26:54;23.50;27.80
27637;DHT22;15049;48.114;11.486;2022-07-23T01:29:20;23.00;28.40
27637;DHT22;15049;48.114;11.486;2022-07-23T01:31:47;22.50;29.90
27637;DHT22;15049;48.114;11.486;2022-07-23T01:34:13;21.90;32.40
27637;DHT22;15049;48.114;11.486;2022-07-23T01:36:39;21.50;33.50
27637;DHT22;15049;48.114;11.486;2022-07-23T01:39:06;21.20;39.10
27637;DHT22;15049;48.114;11.486;2022-07-23T01:41:34;20.60;49.60
27637;DHT22;15049;48.114;11.486;2022-07-23T01:44:00;20.10;57.10
27637;DHT22;15049;48.114;11.486;2022-07-23T01:46:26;19.90;69.00
27637;DHT22;15049;48.114;11.486;2022-07-23T01:48:51;19.80;81.00
27637;DHT22;15049;48.114;11.486;2022-07-23T01:51:17;19.80;90.30
27637;DHT22;15049;48.114;11.486;2022-07-23T01:53:43;19.80;84.10
27637;DHT22;15049;48.114;11.486;2022-07-23T01:56:09;19.70;84.50
27637;DHT22;15049;48.114;11.486;2022-07-23T01:58:36;19.70;83.00
27637;DHT22;15049;48.114;11.486;2022-07-23T02:01:02;19.70;80.50
27637;DHT22;15049;48.114;11.486;2022-07-23T02:03:27;19.60;86.50
27637;DHT22;15049;48.114;11.486;2022-07-23T02:05:54;19.60;93.80
27637;DHT22;15049;48.114;11.486;2022-07-23T02:08:20;19.60;91.80
27637;DHT22;15049;48.114;11.486;2022-07-23T02:10:46;19.50;89.80
27637;DHT22;15049;48.114;11.486;2022-07-23T02:13:12;19.50;92.10
27637;DHT22;15049;48.114;11.486;2022-07-23T02:15:39;19.50;88.10
27637;DHT22;15049;48.114;11.486;2022-07-23T02:18:05;19.50;90.60
27637;DHT22;15049;48.114;11.486;2022-07-23T02:20:31;19.50;88.10
27637;DHT22;15049;48.114;11.486;2022-07-23T02:22:57;19.60;90.10
27637;DHT22;15049;48.114;11.486;2022-07-23T02:25:22;19.60;87.50
27637;DHT22;15049;48.114;11.486;2022-07-23T02:27:48;19.40;91.00
27637;DHT22;15049;48.114;11.486;2022-07-23T02:30:14;19.30;95.90
27637;DHT22;15049;48.114;11.486;2022-07-23T02:32:41;19.30;97.00
27637;DHT22;15049;48.114;11.486;2022-07-23T02:35:07;19.30;99.90
27637;DHT22;15049;48.114;11.486;2022-07-23T02:37:33;19.40;99.90
27637;DHT22;15049;48.114;11.486;2022-07-23T02:39:59;19.40;97.20
27637;DHT22;15049;48.114;11.486;2022-07-23T02:42:24;19.40;99.90
27637;DHT22;15049;48.114;11.486;2022-07-23T02:44:51;19.50;99.90
27637;DHT22;15049;48.114;11.486;2022-07-23T02:47:17;19.60;96.40
27637;DHT22;15049;48.114;11.486;2022-07-23T02:49:44;19.60;91.10
27637;DHT22;15049;48.114;11.486;2022-07-23T02:52:10;19.70;92.70
27637;DHT22;15049;48.114;11.486;2022-07-23T02:54:36;19.70;99.90
27637;DHT22;15049;48.114;11.486;2022-07-23T02:57:02;19.50;99.90
27637;DHT22;15049;48.114;11.486;2022-07-23T02:59:27;19.40;99.90
27637;DHT22;15049;48.114;11.486;2022-07-23T03:01:53;19.30;99.90
27637;DHT22;15049;48.114;11.486;2022-07-23T03:04:19;19.30;99.90
27637;DHT22;15049;48.114;11.486;2022-07-23T03:06:46;19.30;99.90
27637;DHT22;15049;48.114;11.486;2022-07-23T03:09:12;19.20;99.90
27637;DHT22;15049;48.114;11.486;2022-07-23T03:11:37;19.20;99.90
27637;DHT22;15049;48.114;11.486;2022-07-23T03:14:03;19.20;99.90
27637;DHT22;15049;48.114;11.486;2022-07-23T03:16:29;19.20;99.90
27637;DHT22;15049;48.114;11.486;2022-07-23T03:18:54;19.20;99.90
27637;DHT22;15049;48.114;11.486;2022-07-23T03:21:20;19.10;99.90
27637;DHT22;15049;48.114;11.486;2022-07-23T03:23:47;19.20;99.90
27637;DHT22;15049;48.114;11.486;2022-07-23T03:26:13;19.20;99.90
27637;DHT22;15049;48.114;11.486;2022-07-23T03:28:39;19.10;99.90
27637;DHT22;15049;48.114;11.486;2022-07-23T03:31:04;19.10;99.90
27637;DHT22;15049;48.114;11.486;2022-07-23T03:33:30;19.20;99.90
27637;DHT22;15049;48.114;11.486;2022-07-23T03:35:56;19.20;99.90
27637;DHT22;15049;48.114;11.486;2022-07-23T03:38:22;19.10;99.90
27637;DHT22;15049;48.114;11.486;2022-07-23T03:40:49;19.10;99.90
27637;DHT22;15049;48.114;11.486;2022-07-23T03:43:14;19.10;99.90
27637;DHT22;15049;48.114;11.486;2022-07-23T03:45:40;19.10;99.90
27637;DHT22;15049;48.114;11.486;2022-07-23T03:48:06;19.20;99.90
27637;DHT22;15049;48.114;11.486;2022-07-23T03:50:32;19.30;99.90
27637;DHT22;15049;48.114;11.486;2022-07-23T03:52:58;19.40;99.90
27637;DHT22;15049;48.114;11.486;2022-07-23T03:55:23;19.30;99.90
27637;DHT22;15049;48.114;11.486;2022-07-23T03:57:50;19.30;99.90
27637;DHT22;15049;48.114;11.486;2022-07-23T04:00:17;19.30;99.90
27637;DHT22;15049;48.114;11.486;2022-07-23T04:02:42;19.20;99.90
27637;DHT22;15049;48.114;11.486;2022-07-23T04:05:08;19.20;99.90
27637;DHT22;15049;48.114;11.486;2022-07-23T04:07:34;19.20;99.90
27637;DHT22;15049;48.114;11.486;2022-07-23T04:10:00;19.30;99.90
27637;DHT22;15049;48.114;11.486;2022-07-23T04:12:26;19.30;99.90
27637;DHT22;15049;48.114;11.486;2022-07-23T04:14:53;19.30;99.90
27637;DHT22;15049;48.114;11.486;2022-07-23T04:17:19;19.30;99.90
27637;DHT22;15049;48.114;11.486;2022-07-23T04:19:45;19.30;99.90
27637;DHT22;15049;48.114;11.486;2022-07-23T04:22:11;19.30;99.90
27637;DHT22;15049;48.114;11.486;2022-07-23T04:24:37;19.30;99.90
27637;DHT22;15049;48.114;11.486;2022-07-23T04:27:03;19.20;99.90
27637;DHT22;15049;48.114;11.486;2022-07-23T04:29:29;19.20;99.90
27637;DHT22;15049;48.114;11.486;2022-07-23T04:31:56;19.20;99.90
27637;DHT22;15049;48.114;11.486;2022-07-23T04:34:22;19.20;99.90
27637;DHT22;15049;48.114;11.486;2022-07-23T04:36:48;19.20;99.90
27637;DHT22;15049;48.114;11.486;2022-07-23T04:39:14;19.30;99.90
27637;DHT22;15049;48.114;11.486;2022-07-23T04:41:39;19.40;99.90
27637;DHT22;15049;48.114;11.486;2022-07-23T04:44:05;19.40;99.90
27637;DHT22;15049;48.114;11.486;2022-07-23T04:46:31;19.40;99.90
27637;DHT22;15049;48.114;11.486;2022-07-23T04:48:58;19.30;99.90
27637;DHT22;15049;48.114;11.486;2022-07-23T04:51:24;19.40;99.90
27637;DHT22;15049;48.114;11.486;2022-07-23T04:53:50;19.40;99.90
27637;DHT22;15049;48.114;11.486;2022-07-23T04:56:16;19.50;99.90
27637;DHT22;15049;48.114;11.486;2022-07-23T04:58:42;19.60;99.90
27637;DHT22;15049;48.114;11.486;2022-07-23T05:01:08;19.60;99.90
27637;DHT22;15049;48.114;11.486;2022-07-23T05:03:34;19.60;99.90
27637;DHT22;15049;48.114;11.486;2022-07-23T05:06:01;19.60;99.90
27637;DHT22;15049;48.114;11.486;2022-07-23T05:08:28;19.70;99.90
27637;DHT22;15049;48.114;11.486;2022-07-23T05:10:54;19.70;99.90
27637;DHT22;15049;48.114;11.486;2022-07-23T05:13:19;19.70;99.90
27637;DHT22;15049;48.114;11.486;2022-07-23T05:15:46;19.70;99.90
27637;DHT22;15049;48.114;11.486;2022-07-23T05:18:12;19.70;99.90
27637;DHT22;15049;48.114;11.486;2022-07-23T05:20:38;19.70;99.90
27637;DHT22;15049;48.114;11.486;2022-07-23T05:23:05;19.70;99.40
27637;DHT22;15049;48.114;11.486;2022-07-23T05:25:31;19.70;99.90
27637;DHT22;15049;48.114;11.486;2022-07-23T05:27:56;19.70;99.90
27637;DHT22;15049;48.114;11.486;2022-07-23T05:30:22;19.70;98.90
27637;DHT22;15049;48.114;11.486;2022-07-23T05:32:48;19.70;97.90
27637;DHT22;15049;48.114;11.486;2022-07-23T05:35:14;19.70;98.10
27637;DHT22;15049;48.114;11.486;2022-07-23T05:37:39;19.70;99.90
27637;DHT22;15049;48.114;11.486;2022-07-23T05:40:09;19.80;99.90
27637;DHT22;15049;48.114;11.486;2022-07-23T05:42:35;19.80;99.90
27637;DHT22;15049;48.114;11.486;2022-07-23T05:45:01;19.80;99.90
27637;DHT22;15049;48.114;11.486;2022-07-23T05:47:28;19.90;99.90
27637;DHT22;15049;48.114;11.486;2022-07-23T05:49:54;19.90;99.90
27637;DHT22;15049;48.114;11.486;2022-07-23T05:52:19;19.90;96.80
27637;DHT22;15049;48.114;11.486;2022-07-23T05:54:45;19.90;93.60
27637;DHT22;15049;48.114;11.486;2022-07-23T05:57:12;19.90;93.60
27637;DHT22;15049;48.114;11.486;2022-07-23T05:59:38;19.90;92.40
27637;DHT22;15049;48.114;11.486;2022-07-23T06:02:04;20.00;91.30
27637;DHT22;15049;48.114;11.486;2022-07-23T06:04:30;19.90;92.10
27637;DHT22;15049;48.114;11.486;2022-07-23T06:06:55;19.90;93.50
27637;DHT22;15049;48.114;11.486;2022-07-23T06:09:21;19.90;95.30
27637;DHT22;15049;48.114;11.486;2022-07-23T06:11:47;19.80;98.50
27637;DHT22;15049;48.114;11.486;2022-07-23T06:14:14;19.70;99.90
27637;DHT22;15049;48.114;11.486;2022-07-23T06:16:40;19.70;99.90
27637;DHT22;15049;48.114;11.486;2022-07-23T06:19:05;19.70;99.90
27637;DHT22;15049;48.114;11.486;2022-07-23T06:21:31;19.70;99.90
27637;DHT22;15049;48.114;11.486;2022-07-23T06:23:57;19.70;99.90
27637;DHT22;15049;48.114;11.486;2022-07-23T06:26:23;19.80;99.90
27637;DHT22;15049;48.114;11.486;2022-07-23T06:28:48;19.80;99.90
27637;DHT22;15049;48.114;11.486;2022-07-23T06:31:15;19.90;99.90
27637;DHT22;15049;48.114;11.486;2022-07-23T06:33:41;20.00;99.90
27637;DHT22;15049;48.114;11.486;2022-07-23T06:36:07;20.00;99.90
27637;DHT22;15049;48.114;11.486;2022-07-23T06:38:33;20.10;99.90
27637;DHT22;15049;48.114;11.486;2022-07-23T06:40:58;20.10;99.90
27637;DHT22;15049;48.114;11.486;2022-07-23T06:43:24;20.10;97.00
27637;DHT22;15049;48.114;11.486;2022-07-23T06:45:50;20.20;96.30
27637;DHT22;15049;48.114;11.486;2022-07-23T06:48:17;20.20;95.10
27637;DHT22;15049;48.114;11.486;2022-07-23T06:50:43;20.30;96.30
27637;DHT22;15049;48.114;11.486;2022-07-23T06:53:08;20.30;95.50
27637;DHT22;15049;48.114;11.486;2022-07-23T06:55:34;20.30;91.90
27637;DHT22;15049;48.114;11.486;2022-07-23T06:58:03;20.30;91.90
27637;DHT22;15049;48.114;11.486;2022-07-23T07:00:29;20.40;93.10
27637;DHT22;15049;48.114;11.486;2022-07-23T07:02:56;20.30;95.30
27637;DHT22;15049;48.114;11.486;2022-07-23T07:05:24;20.30;94.20
27637;DHT22;15049;48.114;11.486;2022-07-23T07:07:53;20.30;98.70
27637;DHT22;15049;48.114;11.486;2022-07-23T07:10:19;20.30;93.10
27637;DHT22;15049;48.114;11.486;2022-07-23T07:12:45;20.40;92.10
27637;DHT22;15049;48.114;11.486;2022-07-23T07:15:10;20.40;91.10
27637;DHT22;15049;48.114;11.486;2022-07-23T07:17:37;20.40;93.20
27637;DHT22;15049;48.114;11.486;2022-07-23T07:20:04;20.50;93.00
27637;DHT22;15049;48.114;11.486;2022-07-23T07:22:31;20.40;93.70
27637;DHT22;15049;48.114;11.486;2022-07-23T07:24:57;20.50;95.50
27637;DHT22;15049;48.114;11.486;2022-07-23T07:27:23;20.50;98.10
27637;DHT22;15049;48.114;11.486;2022-07-23T07:29:49;20.60;95.20
27637;DHT22;15049;48.114;11.486;2022-07-23T07:32:15;20.70;95.40
27637;DHT22;15049;48.114;11.486;2022-07-23T07:34:41;20.70;96.00
27637;DHT22;15049;48.114;11.486;2022-07-23T07:37:07;20.70;93.50
27637;DHT22;15049;48.114;11.486;2022-07-23T07:39:34;20.60;93.60
27637;DHT22;15049;48.114;11.486;2022-07-23T07:42:00;20.60;96.20
27637;DHT22;15049;48.114;11.486;2022-07-23T07:44:25;20.60;98.50
27637;DHT22;15049;48.114;11.486;2022-07-23T07:46:51;20.60;98.20
27637;DHT22;15049;48.114;11.486;2022-07-23T07:49:18;20.70;95.30
27637;DHT22;15049;48.114;11.486;2022-07-23T07:51:45;20.70;93.90
27637;DHT22;15049;48.114;11.486;2022-07-23T07:54:10;20.70;95.00
27637;DHT22;15049;48.114;11.486;2022-07-23T07:56:38;20.80;93.60
27637;DHT22;15049;48.114;11.486;2022-07-23T07:59:04;20.90;91.90
27637;DHT22;15049;48.114;11.486;2022-07-23T08:01:30;20.90;90.40
27637;DHT22;15049;48.114;11.486;2022-07-23T08:03:56;20.90;87.80
27637;DHT22;15049;48.114;11.486;2022-07-23T08:06:21;20.90;86.80
27637;DHT22;15049;48.114;11.486;2022-07-23T08:08:47;20.90;84.70
27637;DHT22;15049;48.114;11.486;2022-07-23T08:11:13;20.90;84.00
27637;DHT22;15049;48.114;11.486;2022-07-23T08:13:40;21.00;88.30
27637;DHT22;15049;48.114;11.486;2022-07-23T08:16:06;21.00;89.20
27637;DHT22;15049;48.114;11.486;2022-07-23T08:18:32;21.10;86.60
27637;DHT22;15049;48.114;11.486;2022-07-23T08:20:58;21.20;85.40
27637;DHT22;15049;48.114;11.486;2022-07-23T08:23:24;21.30;81.60
27637;DHT22;15049;48.114;11.486;2022-07-23T08:25:50;21.50;79.20
27637;DHT22;15049;48.114;11.486;2022-07-23T08:28:16;21.50;78.40
27637;DHT22;15049;48.114;11.486;2022-07-23T08:30:45;21.60;74.90
27637;DHT22;15049;48.114;11.486;2022-07-23T08:33:12;21.70;74.60
27637;DHT22;15049;48.114;11.486;2022-07-23T08:35:42;21.80;71.90
27637;DHT22;15049;48.114;11.486;2022-07-23T08:38:10;21.90;67.10
27637;DHT22;15049;48.114;11.486;2022-07-23T08:40:38;22.20;66.00
27637;DHT22;15049;48.114;11.486;2022-07-23T08:43:05;22.40;63.20
27637;DHT22;15049;48.114;11.486;2022-07-23T08:45:36;22.50;62.60
27637;DHT22;15049;48.114;11.486;2022-07-23T08:48:06;22.50;57.50
27637;DHT22;15049;48.114;11.486;2022-07-23T08:50:33;22.50;58.40
27637;DHT22;15049;48.114;11.486;2022-07-23T08:53:00;22.60;55.30
27637;DHT22;15049;48.114;11.486;2022-07-23T08:55:27;22.60;55.40
27637;DHT22;15049;48.114;11.486;2022-07-23T08:57:53;22.70;54.30
27637;DHT22;15049;48.114;11.486;2022-07-23T09:00:20;22.80;54.00
27637;DHT22;15049;48.114;11.486;2022-07-23T09:02:47;22.90;54.50
27637;DHT22;15049;48.114;11.486;2022-07-23T09:05:16;22.90;50.90
27637;DHT22;15049;48.114;11.486;2022-07-23T09:08:08;22.90;50.50
27637;DHT22;15049;48.114;11.486;2022-07-23T09:10:48;23.00;49.00
27637;DHT22;15049;48.114;11.486;2022-07-23T09:13:26;23.00;49.10
27637;DHT22;15049;48.114;11.486;2022-07-23T09:15:54;23.10;48.00
27637;DHT22;15049;48.114;11.486;2022-07-23T09:18:31;23.10;48.70
27637;DHT22;15049;48.114;11.486;2022-07-23T09:21:13;23.10;48.60
27637;DHT22;15049;48.114;11.486;2022-07-23T09:23:41;23.30;47.00
27637;DHT22;15049;48.114;11.486;2022-07-23T09:26:19;23.40;44.90
27637;DHT22;15049;48.114;11.486;2022-07-23T09:28:54;23.50;43.90
27637;DHT22;15049;48.114;11.486;2022-07-23T09:31:21;23.80;42.60
27637;DHT22;15049;48.114;11.486;2022-07-23T09:33:47;23.90;41.20
27637;DHT22;15049;48.114;11.486;2022-07-23T09:36:14;23.80;41.70
27637;DHT22;15049;48.114;11.486;2022-07-23T09:38:48;24.00;42.30
27637;DHT22;15049;48.114;11.486;2022-07-23T09:41:14;24.20;41.00
27637;DHT22;15049;48.114;11.486;2022-07-23T09:43:40;24.30;39.80
27637;DHT22;15049;48.114;11.486;2022-07-23T09:46:20;24.50;36.00
27637;DHT22;15049;48.114;11.486;2022-07-23T09:48:47;24.70;35.30
27637;DHT22;15049;48.114;11.486;2022-07-23T09:51:14;25.00;35.80
27637;DHT22;15049;48.114;11.486;2022-07-23T09:53:44;25.30;31.50
27637;DHT22;15049;48.114;11.486;2022-07-23T09:56:12;25.60;30.40
27637;DHT22;15049;48.114;11.486;2022-07-23T09:58:40;25.50;29.60
27637;DHT22;15049;48.114;11.486;2022-07-23T10:01:13;25.40;29.70
27637;DHT22;15049;48.114;11.486;2022-07-23T10:03:39;25.40;28.70
27637;DHT22;15049;48.114;11.486;2022-07-23T10:06:06;25.50;28.50
27637;DHT22;15049;48.114;11.486;2022-07-23T10:08:35;25.50;28.30
27637;DHT22;15049;48.114;11.486;2022-07-23T10:11:01;25.60;28.10
27637;DHT22;15049;48.114;11.486;2022-07-23T10:13:28;25.70;27.50
27637;DHT22;15049;48.114;11.486;2022-07-23T10:16:13;26.00;26.90
27637;DHT22;15049;48.114;11.486;2022-07-23T10:18:39;26.20;26.50
27637;DHT22;15049;48.114;11.486;2022-07-23T10:21:07;26.20;26.60
27637;DHT22;15049;48.114;11.486;2022-07-23T10:23:37;26.40;25.90
27637;DHT22;15049;48.114;11.486;2022-07-23T10:26:11;26.30;25.90
27637;DHT22;15049;48.114;11.486;2022-07-23T10:29:01;26.40;26.20
27637;DHT22;15049;48.114;11.486;2022-07-23T10:31:35;26.40;25.70
27637;DHT22;15049;48.114;11.486;2022-07-23T10:34:12;26.60;24.90
27637;DHT22;15049;48.114;11.486;2022-07-23T10:36:44;26.70;25.40
27637;DHT22;15049;48.114;11.486;2022-07-23T10:39:17;26.80;25.00
27637;DHT22;15049;48.114;11.486;2022-07-23T10:41:44;26.80;24.80
27637;DHT22;15049;48.114;11.486;2022-07-23T10:44:11;26.80;23.70
27637;DHT22;15049;48.114;11.486;2022-07-23T10:46:56;26.70;23.50
27637;DHT22;15049;48.114;11.486;2022-07-23T10:49:37;26.80;23.80
27637;DHT22;15049;48.114;11.486;2022-07-23T10:52:23;26.70;23.70
27637;DHT22;15049;48.114;11.486;2022-07-23T10:54:52;26.80;23.30
27637;DHT22;15049;48.114;11.486;2022-07-23T10:57:19;26.80;23.50
27637;DHT22;15049;48.114;11.486;2022-07-23T11:02:51;27.20;23.20
27637;DHT22;15049;48.114;11.486;2022-07-23T11:05:18;27.10;23.10
27637;DHT22;15049;48.114;11.486;2022-07-23T11:08:10;27.00;23.30
27637;DHT22;15049;48.114;11.486;2022-07-23T11:10:39;26.90;23.60
27637;DHT22;15049;48.114;11.486;2022-07-23T11:13:28;26.80;23.40
27637;DHT22;15049;48.114;11.486;2022-07-23T11:16:11;26.50;23.90
27637;DHT22;15049;48.114;11.486;2022-07-23T11:19:08;26.40;24.00
27637;DHT22;15049;48.114;11.486;2022-07-23T11:21:51;26.10;24.80
27637;DHT22;15049;48.114;11.486;2022-07-23T11:24:22;26.10;24.80
27637;DHT22;15049;48.114;11.486;2022-07-23T11:27:02;26.10;25.20
27637;DHT22;15049;48.114;11.486;2022-07-23T11:29:45;26.10;25.20
27637;DHT22;15049;48.114;11.486;2022-07-23T11:35:23;25.90;25.00
27637;DHT22;15049;48.114;11.486;2022-07-23T11:37:49;25.90;25.30
27637;DHT22;15049;48.114;11.486;2022-07-23T11:40:20;25.80;25.20
27637;DHT22;15049;48.114;11.486;2022-07-23T11:42:56;25.80;25.50
27637;DHT22;15049;48.114;11.486;2022-07-23T11:45:23;25.80;26.20
27637;DHT22;15049;48.114;11.486;2022-07-23T11:47:49;25.70;25.70
27637;DHT22;15049;48.114;11.486;2022-07-23T11:50:15;25.60;26.00
27637;DHT22;15049;48.114;11.486;2022-07-23T11:52:41;25.60;25.90
27637;DHT22;15049;48.114;11.486;2022-07-23T11:55:09;25.60;26.10
27637;DHT22;15049;48.114;11.486;2022-07-23T11:57:36;25.60;26.40
27637;DHT22;15049;48.114;11.486;2022-07-23T12:00:07;25.60;26.60
27637;DHT22;15049;48.114;11.486;2022-07-23T12:02:34;25.60;27.50
27637;DHT22;15049;48.114;11.486;2022-07-23T12:05:00;25.50;27.00
27637;DHT22;15049;48.114;11.486;2022-07-23T12:07:31;25.50;27.10
27637;DHT22;15049;48.114;11.486;2022-07-23T12:09:58;25.40;27.20
27637;DHT22;15049;48.114;11.486;2022-07-23T12:12:25;25.30;27.60
27637;DHT22;15049;48.114;11.486;2022-07-23T12:14:53;25.30;27.30
27637;DHT22;15049;48.114;11.486;2022-07-23T12:17:21;25.20;27.60
27637;DHT22;15049;48.114;11.486;2022-07-23T12:19:52;25.10;27.70
27637;DHT22;15049;48.114;11.486;2022-07-23T12:22:18;25.10;27.70
27637;DHT22;15049;48.114;11.486;2022-07-23T12:24:57;25.00;28.10
27637;DHT22;15049;48.114;11.486;2022-07-23T12:27:24;24.90;27.80
27637;DHT22;15049;48.114;11.486;2022-07-23T12:29:50;24.90;28.30
27637;DHT22;15049;48.114;11.486;2022-07-23T12:32:22;24.80;28.40
27637;DHT22;15049;48.114;11.486;2022-07-23T12:34:50;24.90;28.30
27637;DHT22;15049;48.114;11.486;2022-07-23T12:37:30;25.00;28.30
27637;DHT22;15049;48.114;11.486;2022-07-23T12:39:56;25.00;28.30
27637;DHT22;15049;48.114;11.486;2022-07-23T12:42:23;25.00;28.20
27637;DHT22;15049;48.114;11.486;2022-07-23T12:45:07;24.90;28.30
27637;DHT22;15049;48.114;11.486;2022-07-23T12:47:56;24.90;28.30
27637;DHT22;15049;48.114;11.486;2022-07-23T12:50:49;25.00;28.20
27637;DHT22;15049;48.114;11.486;2022-07-23T12:53:16;25.10;28.00
27637;DHT22;15049;48.114;11.486;2022-07-23T12:55:43;25.10;27.90
27637;DHT22;15049;48.114;11.486;2022-07-23T12:58:12;25.10;28.00
27637;DHT22;15049;48.114;11.486;2022-07-23T13:00:54;25.10;28.00
27637;DHT22;15049;48.114;11.486;2022-07-23T13:03:30;25.10;27.90
27637;DHT22;15049;48.114;11.486;2022-07-23T13:05:57;25.10;27.80
27637;DHT22;15049;48.114;11.486;2022-07-23T13:08:23;25.10;28.10
27637;DHT22;15049;48.114;11.486;2022-07-23T13:10:49;25.10;28.00
27637;DHT22;15049;48.114;11.486;2022-07-23T13:13:17;25.10;28.40
27637;DHT22;15049;48.114;11.486;2022-07-23T13:15:45;25.20;28.60
27637;DHT22;15049;48.114;11.486;2022-07-23T13:18:10;25.30;28.30
27637;DHT22;15049;48.114;11.486;2022-07-23T13:20:38;25.20;28.40
27637;DHT22;15049;48.114;11.486;2022-07-23T13:23:04;25.10;28.90
27637;DHT22;15049;48.114;11.486;2022-07-23T13:25:30;25.10;28.90
27637;DHT22;15049;48.114;11.486;2022-07-23T13:27:56;25.10;28.90
27637;DHT22;15049;48.114;11.486;2022-07-23T13:30:22;25.10;28.80
27637;DHT22;15049;48.114;11.486;2022-07-23T13:32:48;25.20;29.10
27637;DHT22;15049;48.114;11.486;2022-07-23T13:35:14;25.20;28.90
27637;DHT22;15049;48.114;11.486;2022-07-23T13:37:41;25.40;28.40
27637;DHT22;15049;48.114;11.486;2022-07-23T13:40:07;25.50;28.10
27637;DHT22;15049;48.114;11.486;2022-07-23T13:42:33;25.90;27.30
27637;DHT22;15049;48.114;11.486;2022-07-23T13:44:59;26.00;27.10
27637;DHT22;15049;48.114;11.486;2022-07-23T13:47:25;25.90;27.30
27637;DHT22;15049;48.114;11.486;2022-07-23T13:49:51;25.80;27.30
27637;DHT22;15049;48.114;11.486;2022-07-23T13:52:17;25.60;27.60
27637;DHT22;15049;48.114;11.486;2022-07-23T13:54:44;25.40;27.80
27637;DHT22;15049;48.114;11.486;2022-07-23T13:57:10;25.40;28.00
27637;DHT22;15049;48.114;11.486;2022-07-23T13:59:36;25.40;27.80
27637;DHT22;15049;48.114;11.486;2022-07-23T14:02:01;25.30;28.10
27637;DHT22;15049;48.114;11.486;2022-07-23T14:04:27;25.20;28.30
27637;DHT22;15049;48.114;11.486;2022-07-23T14:06:53;25.20;28.70
27637;DHT22;15049;48.114;11.486;2022-07-23T14:09:19;25.10;28.50
27637;DHT22;15049;48.114;11.486;2022-07-23T14:11:46;25.10;28.60
27637;DHT22;15049;48.114;11.486;2022-07-23T14:14:12;25.00;28.60
27637;DHT22;15049;48.114;11.486;2022-07-23T14:16:39;25.00;28.60
27637;DHT22;15049;48.114;11.486;2022-07-23T14:19:05;25.10;28.80
27637;DHT22;15049;48.114;11.486;2022-07-23T14:21:31;25.10;28.50
27637;DHT22;15049;48.114;11.486;2022-07-23T14:23:57;25.00;28.50
27637;DHT22;15049;48.114;11.486;2022-07-23T14:26:22;25.00;28.90
27637;DHT22;15049;48.114;11.486;2022-07-23T14:28:50;25.10;29.10
27637;DHT22;15049;48.114;11.486;2022-07-23T14:31:16;25.10;29.50
27637;DHT22;15049;48.114;11.486;2022-07-23T14:33:41;25.10;29.40
27637;DHT22;15049;48.114;11.486;2022-07-23T14:36:07;24.90;29.50
27637;DHT22;15049;48.114;11.486;2022-07-23T14:38:33;25.00;29.60
27637;DHT22;15049;48.114;11.486;2022-07-23T14:40:59;24.90;29.80
27637;DHT22;15049;48.114;11.486;2022-07-23T14:43:25;24.90;29.90
27637;DHT22;15049;48.114;11.486;2022-07-23T14:45:52;25.00;29.60
27637;DHT22;15049;48.114;11.486;2022-07-23T14:48:18;25.40;29.00
27637;DHT22;15049;48.114;11.486;2022-07-23T14:50:43;25.40;28.70
27637;DHT22;15049;48.114;11.486;2022-07-23T14:53:09;25.50;28.70
27637;DHT22;15049;48.114;11.486;2022-07-23T14:55:35;25.50;28.90
27637;DHT22;15049;48.114;11.486;2022-07-23T14:58:01;25.50;28.90
27637;DHT22;15049;48.114;11.486;2022-07-23T15:00:27;25.50;28.90
27637;DHT22;15049;48.114;11.486;2022-07-23T15:02:57;25.40;29.00
27637;DHT22;15049;48.114;11.486;2022-07-23T15:05:23;25.20;29.20
27637;DHT22;15049;48.114;11.486;2022-07-23T15:07:49;25.10;30.20
27637;DHT22;15049;48.114;11.486;2022-07-23T15:10:15;25.30;29.60
27637;DHT22;15049;48.114;11.486;2022-07-23T15:12:40;25.30;29.40
27637;DHT22;15049;48.114;11.486;2022-07-23T15:15:07;25.50;28.90
27637;DHT22;15049;48.114;11.486;2022-07-23T15:17:33;25.70;28.40
27637;DHT22;15049;48.114;11.486;2022-07-23T15:20:00;26.00;28.00
27637;DHT22;15049;48.114;11.486;2022-07-23T15:22:26;26.30;28.20
27637;DHT22;15049;48.114;11.486;2022-07-23T15:24:52;26.60;27.60